createdAt,value
2018-02-06T00:01:32.172Z,17.17
2018-02-06T00:04:00.530Z,18.50
2018-02-06T00:06:28.872Z,20.90
2018-02-06T00:08:57.167Z,19.57
2018-02-06T00:11:25.550Z,19.47
2018-02-06T00:13:53.908Z,19.50
2018-02-06T00:16:22.266Z,18.67
2018-02-06T00:18:50.553Z,19.33
2018-02-06T00:21:18.877Z,19.50
2018-02-06T00:23:47.211Z,19.30
2018-02-06T00:26:15.561Z,19.40
2018-02-06T00:28:43.901Z,19.33
2018-02-06T00:31:19.309Z,18.17
2018-02-06T00:33:47.855Z,18.97
2018-02-06T00:36:16.190Z,18.67
2018-02-06T00:38:44.745Z,20.10
2018-02-06T00:41:13.072Z,18.80
2018-02-06T00:43:41.400Z,18.93
2018-02-06T00:46:09.752Z,18.87
2018-02-06T00:48:38.087Z,19.73
2018-02-06T00:51:06.394Z,17.63
2018-02-06T00:53:34.698Z,19.17
2018-02-06T00:56:03.299Z,20.20
2018-02-06T00:58:32.099Z,18.93
2018-02-06T01:01:01.007Z,18.43
2018-02-06T01:03:30.439Z,20.10
2018-02-06T01:05:59.031Z,17.80
2018-02-06T01:08:29.249Z,18.60
2018-02-06T01:10:58.091Z,18.23
2018-02-06T01:13:26.426Z,19.07
2018-02-06T01:15:54.813Z,19.03
2018-02-06T01:18:23.206Z,18.10
2018-02-06T01:20:51.546Z,17.20
2018-02-06T01:23:19.989Z,16.90
2018-02-06T01:25:48.354Z,16.60
2018-02-06T01:28:16.668Z,17.30
2018-02-06T01:30:45.578Z,15.60
2018-02-06T01:33:13.932Z,16.50
2018-02-06T01:35:42.527Z,16.97
2018-02-06T01:38:10.855Z,16.70
2018-02-06T01:40:39.230Z,16.53
2018-02-06T01:43:08.070Z,17.63
2018-02-06T01:45:36.435Z,17.80
2018-02-06T01:48:04.744Z,17.93
2018-02-06T01:50:33.075Z,17.30
2018-02-06T01:53:05.623Z,18.33
2018-02-06T01:55:35.271Z,17.57
2018-02-06T01:58:04.231Z,17.40
2018-02-06T02:00:32.635Z,17.63
2018-02-06T02:03:00.936Z,17.10
2018-02-06T02:05:29.526Z,16.43
2018-02-06T02:07:57.851Z,17.30
2018-02-06T02:10:26.288Z,15.93
2018-02-06T02:12:56.177Z,16.73
2018-02-06T02:15:24.503Z,17.60
2018-02-06T02:17:53.045Z,16.20
2018-02-06T02:20:21.677Z,16.60
2018-02-06T02:22:50.095Z,16.57
2018-02-06T02:25:18.431Z,17.67
2018-02-06T02:27:46.839Z,17.70
2018-02-06T02:30:15.164Z,18.13
2018-02-06T02:32:43.467Z,17.83
2018-02-06T02:35:11.873Z,19.50
2018-02-06T02:37:40.172Z,17.27
2018-02-06T02:40:08.944Z,17.90
2018-02-06T04:38:39.611Z,12.50
2018-02-06T04:41:08.229Z,11.93
2018-02-06T04:43:36.561Z,11.50
2018-02-06T04:46:04.944Z,11.30
2018-02-06T04:48:33.214Z,11.10
2018-02-06T04:51:01.542Z,11.27
2018-02-06T04:53:30.054Z,11.50
2018-02-06T04:55:58.592Z,11.40
2018-02-06T04:58:26.992Z,11.43
2018-02-06T05:03:50.885Z,10.97
2018-02-06T05:06:19.250Z,11.37
2018-02-06T05:08:47.563Z,11.67
2018-02-06T05:11:16.001Z,11.87
2018-02-06T05:13:44.347Z,11.97
2018-02-06T05:16:12.870Z,12.73
2018-02-06T05:18:41.252Z,12.03
2018-02-06T05:21:09.582Z,11.10
2018-02-06T05:23:37.938Z,11.70
2018-02-06T05:26:06.414Z,11.80
2018-02-06T05:28:34.733Z,12.97
2018-02-06T05:31:03.055Z,11.73
2018-02-06T05:33:31.459Z,12.47
2018-02-06T05:35:59.779Z,12.73
2018-02-06T05:38:28.075Z,12.17
2018-02-06T05:40:56.430Z,12.67
2018-02-06T05:43:24.891Z,13.70
2018-02-06T05:45:53.278Z,12.57
2018-02-06T05:48:21.610Z,13.63
2018-02-06T05:50:49.951Z,13.23
2018-02-06T05:53:18.260Z,13.80
2018-02-06T05:55:46.562Z,12.77
2018-02-06T05:58:14.904Z,12.93
2018-02-06T06:00:43.646Z,12.73
2018-02-06T06:03:11.939Z,13.50
2018-02-06T06:05:40.795Z,14.03
2018-02-06T06:08:09.298Z,12.30
2018-02-06T06:10:42.163Z,13.30
2018-02-06T06:13:11.723Z,13.70
2018-02-06T06:15:40.401Z,14.20
2018-02-06T06:18:11.816Z,14.07
2018-02-06T06:20:41.070Z,13.97
2018-02-06T06:23:10.863Z,13.33
2018-02-06T06:25:39.467Z,13.10
2018-02-06T06:28:07.779Z,12.50
2018-02-06T06:30:36.160Z,14.97
2018-02-06T06:33:04.443Z,14.10
2018-02-06T06:35:33.125Z,13.27
2018-02-06T06:38:03.328Z,13.67
2018-02-06T06:40:32.301Z,14.40
2018-02-06T06:43:01.550Z,13.17
2018-02-06T06:45:30.599Z,14.10
2018-02-06T06:47:58.976Z,14.73
2018-02-06T06:50:27.310Z,14.47
2018-02-06T06:52:55.606Z,13.57
2018-02-06T06:55:23.924Z,14.93
2018-02-06T06:57:52.364Z,13.37
2018-02-06T07:00:20.953Z,13.70
2018-02-06T07:02:49.398Z,14.70
2018-02-06T07:05:17.738Z,13.77
2018-02-06T07:07:46.092Z,15.20
2018-02-06T07:10:14.563Z,17.17
2018-02-06T07:12:42.850Z,16.90
2018-02-06T07:15:11.175Z,17.93
2018-02-06T07:17:39.494Z,17.20
2018-02-06T07:20:08.031Z,14.37
2018-02-06T07:22:36.471Z,17.83
2018-02-06T07:25:04.942Z,16.13
2018-02-06T07:27:33.222Z,15.47
2018-02-06T07:30:01.708Z,17.83
2018-02-06T07:32:30.215Z,15.93
2018-02-06T07:34:58.540Z,17.03
2018-02-06T07:37:26.940Z,15.27
2018-02-06T07:39:55.281Z,16.67
2018-02-06T07:42:23.624Z,16.47
2018-02-06T07:44:52.131Z,15.60
2018-02-06T07:47:20.472Z,16.50
2018-02-06T07:49:48.823Z,17.63
2018-02-06T07:52:17.177Z,15.27
2018-02-06T07:54:45.559Z,14.30
2018-02-06T07:57:13.969Z,14.83
2018-02-06T07:59:42.287Z,15.50
2018-02-06T08:02:10.636Z,12.20
2018-02-06T08:04:39.083Z,10.00
2018-02-06T08:07:07.428Z,10.23
2018-02-06T08:09:35.910Z,10.53
2018-02-06T08:12:04.238Z,11.37
2018-02-06T08:14:32.627Z,11.87
2018-02-06T08:17:00.977Z,9.73
2018-02-06T08:19:29.315Z,9.30
2018-02-06T08:22:04.458Z,10.60
2018-02-06T08:24:32.754Z,9.90
2018-02-06T08:27:01.272Z,9.73
2018-02-06T08:29:29.629Z,9.13
2018-02-06T08:31:58.053Z,9.67
2018-02-06T08:34:27.864Z,9.90
2018-02-06T08:36:59.083Z,9.73
2018-02-06T08:39:27.734Z,10.00
2018-02-06T08:41:56.055Z,9.40
2018-02-06T08:44:24.436Z,9.37
2018-02-06T08:46:52.779Z,10.20
2018-02-06T08:49:21.106Z,9.20
2018-02-06T08:51:49.404Z,9.20
2018-02-06T08:54:17.815Z,10.00
2018-02-06T08:56:46.169Z,8.90
2018-02-06T08:59:14.551Z,9.47
2018-02-06T09:01:42.911Z,8.83
2018-02-06T09:04:11.316Z,9.33
2018-02-06T09:06:39.650Z,7.93
2018-02-06T09:09:07.947Z,7.93
2018-02-06T09:11:36.298Z,8.10
2018-02-06T09:14:04.887Z,7.90
2018-02-06T09:16:33.270Z,8.13
2018-02-06T09:19:01.732Z,8.67
2018-02-06T09:21:30.210Z,8.63
2018-02-06T09:23:58.690Z,7.60
2018-02-06T09:26:27.060Z,7.40
2018-02-06T09:28:55.684Z,7.13
2018-02-06T09:31:24.001Z,7.33
2018-02-06T09:33:52.358Z,6.80
2018-02-06T09:36:20.683Z,6.90
2018-02-06T09:38:49.044Z,8.20
2018-02-06T09:41:17.497Z,7.73
2018-02-06T09:43:45.825Z,7.20
2018-02-06T09:46:14.194Z,8.10
2018-02-06T09:48:42.518Z,7.20
2018-02-06T09:51:10.876Z,6.83
2018-02-06T09:53:39.160Z,7.70
2018-02-06T09:56:10.775Z,7.67
2018-02-06T09:58:39.068Z,7.10
2018-02-06T10:01:07.562Z,7.20
2018-02-06T10:03:35.975Z,6.00
2018-02-06T10:06:04.453Z,7.20
2018-02-06T10:08:33.627Z,7.80
2018-02-06T10:11:02.064Z,7.40
2018-02-06T10:13:30.380Z,5.77
2018-02-06T10:15:58.681Z,6.13
2018-02-06T10:18:27.070Z,6.47
2018-02-06T10:20:55.390Z,5.80
2018-02-06T10:23:23.681Z,6.20
2018-02-06T10:25:51.966Z,6.27
2018-02-06T10:28:20.256Z,6.40
2018-02-06T10:30:48.558Z,5.90
2018-02-06T10:33:17.203Z,7.30
2018-02-06T10:35:45.551Z,8.40
2018-02-06T10:38:14.367Z,7.67
2018-02-06T10:40:42.915Z,8.37
2018-02-06T10:43:11.282Z,7.67
2018-02-06T10:45:39.686Z,8.33
2018-02-06T10:48:09.849Z,8.50
2018-02-06T10:50:38.258Z,8.37
2018-02-06T10:53:06.719Z,9.03
2018-02-06T10:55:35.222Z,8.10
2018-02-06T10:58:03.565Z,7.50
2018-02-06T11:00:31.947Z,7.20
2018-02-06T11:03:00.298Z,7.50
2018-02-06T11:05:28.750Z,7.60
2018-02-06T11:07:57.078Z,6.63
2018-02-06T11:10:25.402Z,6.83
2018-02-06T11:12:53.987Z,6.70
2018-02-06T11:15:22.759Z,7.30
2018-02-06T11:17:51.048Z,6.67
2018-02-06T11:20:19.366Z,7.33
2018-02-06T11:22:47.717Z,7.40
2018-02-06T11:25:16.055Z,6.50
2018-02-06T11:27:44.575Z,7.10
2018-02-06T11:30:12.919Z,6.77
2018-02-06T11:32:41.223Z,6.80
2018-02-06T11:35:09.578Z,6.70
2018-02-06T11:37:37.899Z,6.23
2018-02-06T11:40:06.227Z,5.70
2018-02-06T11:42:34.630Z,5.63
2018-02-06T11:45:03.278Z,8.13
2018-02-06T11:47:31.625Z,5.47
2018-02-06T11:49:59.911Z,6.20
2018-02-06T11:52:28.296Z,6.23
2018-02-06T11:54:56.712Z,5.80
2018-02-06T11:57:25.079Z,6.07
2018-02-06T11:59:53.356Z,6.20
2018-02-06T12:02:21.687Z,6.53
2018-02-06T12:04:49.966Z,7.60
2018-02-06T12:07:18.314Z,6.83
2018-02-06T12:09:46.714Z,7.33
2018-02-06T12:12:15.197Z,6.37
2018-02-06T12:14:43.525Z,6.27
2018-02-06T12:17:12.324Z,7.37
2018-02-06T12:19:40.767Z,6.57
2018-02-06T12:22:09.135Z,6.10
2018-02-06T12:24:37.610Z,7.40
2018-02-06T12:27:06.168Z,6.13
2018-02-06T12:29:34.718Z,5.93
2018-02-06T12:32:03.166Z,6.67
2018-02-06T12:34:31.478Z,6.10
2018-02-06T12:36:59.774Z,5.37
2018-02-06T12:39:28.439Z,5.27
2018-02-06T12:41:56.845Z,5.37
2018-02-06T12:44:25.208Z,5.23
2018-02-06T12:46:53.577Z,5.60
2018-02-06T12:49:21.871Z,5.57
2018-02-06T12:51:50.243Z,5.00
2018-02-06T12:54:18.545Z,4.80
2018-02-06T12:56:46.913Z,5.47
2018-02-06T12:59:15.266Z,4.20
2018-02-06T13:01:43.639Z,4.40
2018-02-06T13:04:11.891Z,4.83
2018-02-06T13:06:40.207Z,4.50
2018-02-06T13:09:08.484Z,5.60
2018-02-06T13:11:43.304Z,5.20
2018-02-06T13:14:11.681Z,5.80
2018-02-06T13:16:40.035Z,6.00
2018-02-06T13:19:08.330Z,6.27
2018-02-06T13:21:36.655Z,4.80
2018-02-06T13:24:05.011Z,6.10
2018-02-06T13:26:33.355Z,4.57
2018-02-06T13:29:02.000Z,4.93
2018-02-06T13:31:32.010Z,4.70
2018-02-06T13:34:00.701Z,5.43
2018-02-06T13:36:29.017Z,4.80
2018-02-06T13:38:57.588Z,5.20
2018-02-06T13:41:26.198Z,4.37
2018-02-06T13:43:54.682Z,4.40
2018-02-06T13:46:23.158Z,4.30
2018-02-06T13:48:51.474Z,9.50
2018-02-06T13:51:19.798Z,5.83
2018-02-06T13:53:48.096Z,4.80
2018-02-06T13:56:16.503Z,4.73
2018-02-06T13:58:44.795Z,5.70
2018-02-06T14:01:13.213Z,6.20
2018-02-06T14:03:41.535Z,5.00
2018-02-06T14:06:09.983Z,4.50
2018-02-06T14:08:38.355Z,4.23
2018-02-06T14:11:06.697Z,4.77
2018-02-06T14:16:09.530Z,4.60
2018-02-06T14:18:37.815Z,4.70
2018-02-06T14:21:06.186Z,4.73
2018-02-06T14:23:34.507Z,5.20
2018-02-06T14:26:03.430Z,4.43
2018-02-06T14:28:31.749Z,4.43
2018-02-06T14:31:00.963Z,3.87
2018-02-06T14:33:30.250Z,5.27
2018-02-06T14:35:58.617Z,4.30
2018-02-06T14:38:27.498Z,4.13
2018-02-06T14:40:56.857Z,4.07
2018-02-06T14:43:25.374Z,3.97
2018-02-06T14:45:53.792Z,4.90
2018-02-06T14:48:22.123Z,3.60
2018-02-06T14:50:50.492Z,4.10
2018-02-06T14:53:18.795Z,5.20
2018-02-06T14:55:47.204Z,4.50
2018-02-06T14:58:15.547Z,4.73
2018-02-06T15:00:43.860Z,4.50
2018-02-06T15:03:13.439Z,4.07
2018-02-06T15:05:41.909Z,5.10
2018-02-06T15:08:10.272Z,5.67
2018-02-06T15:10:38.678Z,5.50
2018-02-06T15:13:06.988Z,5.60
2018-02-06T15:15:35.332Z,5.93
2018-02-06T15:18:03.869Z,5.47
2018-02-06T15:20:32.166Z,5.60
2018-02-06T15:23:00.524Z,4.80
2018-02-06T15:25:28.952Z,5.20
2018-02-06T15:27:57.683Z,5.00
2018-02-06T15:30:26.018Z,5.13
2018-02-06T15:32:54.344Z,5.83
2018-02-06T15:35:22.666Z,4.80
2018-02-06T15:37:51.050Z,5.00
2018-02-06T15:40:19.394Z,5.40
2018-02-06T15:42:49.058Z,5.27
2018-02-06T15:45:17.421Z,5.93
2018-02-06T15:47:45.905Z,5.27
2018-02-06T15:50:14.268Z,6.93
2018-02-06T15:52:42.671Z,5.10
2018-02-06T15:55:10.980Z,4.43
2018-02-06T15:57:39.315Z,5.23
2018-02-06T16:00:07.894Z,4.97
2018-02-06T16:02:36.330Z,4.70
2018-02-06T16:05:04.639Z,4.83
2018-02-06T16:07:32.940Z,5.10
2018-02-06T16:10:01.227Z,5.67
2018-02-06T16:12:30.050Z,4.80
2018-02-06T16:14:58.403Z,4.63
2018-02-06T16:17:26.769Z,5.70
2018-02-06T16:19:55.066Z,5.40
2018-02-06T16:22:23.607Z,5.93
2018-02-06T16:24:51.892Z,8.00
2018-02-06T16:27:20.303Z,6.80
2018-02-06T16:29:48.634Z,5.97
2018-02-06T16:32:17.123Z,6.27
2018-02-06T16:34:45.485Z,6.93
2018-02-06T16:37:13.961Z,6.10
2018-02-06T16:39:43.230Z,6.70
2018-02-06T16:42:11.681Z,6.63
2018-02-06T16:44:40.162Z,7.07
2018-02-06T16:47:08.563Z,6.10
2018-02-06T16:49:37.001Z,6.60
2018-02-06T16:52:05.355Z,7.40
2018-02-06T16:54:33.715Z,6.47
2018-02-06T16:57:02.242Z,7.40
2018-02-06T16:59:30.781Z,7.10
2018-02-06T17:01:59.175Z,7.37
2018-02-06T17:04:27.479Z,7.97
2018-02-06T17:06:55.906Z,6.40
2018-02-06T17:09:24.206Z,7.57
2018-02-06T17:11:52.608Z,7.77
2018-02-06T17:14:21.075Z,8.23
2018-02-06T17:16:49.460Z,7.43
2018-02-06T17:19:17.801Z,7.50
2018-02-06T17:21:46.181Z,7.60
2018-02-06T17:24:14.502Z,8.67
2018-02-06T17:26:49.801Z,8.20
2018-02-06T17:29:18.144Z,8.83
2018-02-06T17:31:46.469Z,7.97
2018-02-06T17:34:14.916Z,8.60
2018-02-06T17:36:43.284Z,7.90
2018-02-06T17:39:11.586Z,8.83
2018-02-06T17:41:39.996Z,8.90
2018-02-06T17:44:08.326Z,8.60
2018-02-06T17:46:36.854Z,10.87
2018-02-06T17:49:05.115Z,9.27
2018-02-06T17:51:33.492Z,9.30
2018-02-06T17:54:01.778Z,9.90
2018-02-06T17:56:30.103Z,10.23
2018-02-06T17:58:58.539Z,9.70
2018-02-06T18:01:26.859Z,9.83
2018-02-06T18:03:55.202Z,9.70
2018-02-06T18:06:23.568Z,10.23
2018-02-06T18:08:51.905Z,10.30
2018-02-06T18:11:20.294Z,9.63
2018-02-06T18:13:49.222Z,10.00
2018-02-06T18:16:18.747Z,10.33
2018-02-06T18:18:47.032Z,10.70
2018-02-06T18:21:15.352Z,10.93
2018-02-06T18:23:43.798Z,11.20
2018-02-06T18:26:12.240Z,12.80
2018-02-06T18:28:40.563Z,11.70
2018-02-06T18:31:10.760Z,10.73
2018-02-06T18:33:39.212Z,12.90
2018-02-06T18:36:07.635Z,13.10
2018-02-06T18:38:36.080Z,12.70
2018-02-06T18:41:04.613Z,12.97
2018-02-06T18:43:33.034Z,13.60
2018-02-06T18:46:01.391Z,13.43
2018-02-06T18:48:30.055Z,13.40
2018-02-06T18:50:58.503Z,11.00
2018-02-06T18:53:26.882Z,11.30
2018-02-06T18:55:55.946Z,11.87
2018-02-06T18:58:24.603Z,11.23
2018-02-06T19:00:53.241Z,10.83
2018-02-06T19:03:23.730Z,10.97
2018-02-06T19:05:57.580Z,10.87
2018-02-06T19:08:26.915Z,10.17
2018-02-06T19:10:55.243Z,9.90
2018-02-06T19:13:26.060Z,11.53
2018-02-06T19:15:54.456Z,10.67
2018-02-06T19:18:23.723Z,10.47
2018-02-06T19:20:52.289Z,10.33
2018-02-06T19:23:21.158Z,10.40
2018-02-06T19:25:49.622Z,10.90
2018-02-06T19:28:18.562Z,10.07
2018-02-06T19:30:47.182Z,10.10
2018-02-06T19:33:15.547Z,10.10
2018-02-06T19:35:43.873Z,10.20
2018-02-06T19:38:15.944Z,10.10
2018-02-06T19:40:44.392Z,10.57
2018-02-06T19:43:12.730Z,9.90
2018-02-06T19:45:41.162Z,9.83
2018-02-06T19:48:09.469Z,9.70
2018-02-06T19:50:38.014Z,10.17
2018-02-06T19:53:06.307Z,12.47
2018-02-06T19:55:34.673Z,10.10
2018-02-06T19:58:03.007Z,9.50
2018-02-06T20:00:31.482Z,10.50
2018-02-06T20:02:59.906Z,9.90
2018-02-06T20:05:28.360Z,10.87
2018-02-06T20:07:56.703Z,10.50
2018-02-06T20:10:25.106Z,10.77
2018-02-06T20:12:53.454Z,10.97
2018-02-06T20:15:22.194Z,10.43
2018-02-06T20:17:50.646Z,10.50
2018-02-06T20:20:19.083Z,11.47
2018-02-06T20:22:47.539Z,10.73
2018-02-06T20:25:16.199Z,11.57
2018-02-06T20:27:44.609Z,11.77
2018-02-06T20:30:13.031Z,10.63
2018-02-06T20:32:41.374Z,10.67
2018-02-06T20:35:12.401Z,11.03
2018-02-06T20:37:41.055Z,11.10
2018-02-06T20:40:09.388Z,10.90
2018-02-06T20:42:37.826Z,10.20
2018-02-06T20:45:06.154Z,10.30
2018-02-06T20:47:34.791Z,11.23
2018-02-06T20:50:03.292Z,11.10
2018-02-06T20:52:31.647Z,10.50
2018-02-06T20:54:59.998Z,10.93
2018-02-06T20:57:32.175Z,11.13
2018-02-06T21:00:00.620Z,11.63
2018-02-06T21:02:28.954Z,10.83
2018-02-06T21:04:57.279Z,11.77
2018-02-06T21:07:25.611Z,11.70
2018-02-06T21:09:53.935Z,12.03
2018-02-06T21:12:22.498Z,11.57
2018-02-06T21:14:50.852Z,10.90
2018-02-06T21:17:19.217Z,12.13
2018-02-06T21:19:47.503Z,11.20
2018-02-06T21:22:15.847Z,11.90
2018-02-06T21:24:45.970Z,11.67
2018-02-06T21:28:14.829Z,12.97
2018-02-06T21:30:46.127Z,12.30
2018-02-06T21:33:14.548Z,13.00
2018-02-06T21:35:42.910Z,12.23
2018-02-06T21:38:11.335Z,12.67
2018-02-06T21:40:39.940Z,12.90
2018-02-06T21:43:08.644Z,13.03
2018-02-06T21:45:37.300Z,13.57
2018-02-06T21:48:06.308Z,13.63
2018-02-06T21:50:34.682Z,13.00
2018-02-06T21:53:03.027Z,13.43
2018-02-06T21:55:33.427Z,13.30
2018-02-06T21:58:01.978Z,12.53
2018-02-06T22:00:30.593Z,12.83
2018-02-06T22:02:58.906Z,12.83
2018-02-06T22:05:27.312Z,12.60
2018-02-06T22:07:55.870Z,14.50
2018-02-06T22:10:24.330Z,12.60
2018-02-06T22:12:52.785Z,13.60
2018-02-06T22:15:23.136Z,13.17
2018-02-06T22:17:54.343Z,12.20
2018-02-06T22:20:27.131Z,13.53
2018-02-06T22:22:57.550Z,12.63
2018-02-06T22:25:29.854Z,13.43
2018-02-06T22:27:59.034Z,13.23
2018-02-06T22:30:29.783Z,13.13
2018-02-06T22:32:58.815Z,12.90
2018-02-06T22:35:30.137Z,11.53
2018-02-06T22:38:00.645Z,12.77
2018-02-06T22:40:30.969Z,12.63
2018-02-06T22:43:00.496Z,12.60
2018-02-06T22:45:29.113Z,12.60
2018-02-06T22:47:57.637Z,13.50
2018-02-06T22:50:25.971Z,13.23
2018-02-06T22:52:54.679Z,13.17
2018-02-06T22:55:23.012Z,13.37
2018-02-06T22:57:51.647Z,13.80
2018-02-06T23:00:23.612Z,14.87
2018-02-06T23:02:51.991Z,13.90
2018-02-06T23:05:21.124Z,13.70
2018-02-06T23:07:49.752Z,12.87
2018-02-06T23:10:18.115Z,14.73
2018-02-06T23:12:46.805Z,15.30
2018-02-06T23:15:15.369Z,15.13
2018-02-06T23:17:43.833Z,14.20
2018-02-06T23:20:12.166Z,14.93
2018-02-06T23:22:40.463Z,15.20
2018-02-06T23:25:08.842Z,14.80
2018-02-06T23:27:37.206Z,14.60
2018-02-06T23:30:05.540Z,15.30
2018-02-06T23:32:34.027Z,14.93
2018-02-06T23:35:02.311Z,15.70
2018-02-06T23:37:30.684Z,14.53
2018-02-06T23:39:58.994Z,14.70
2018-02-06T23:42:27.698Z,15.63
2018-02-06T23:44:56.011Z,16.10
2018-02-06T23:47:24.388Z,15.90
2018-02-06T23:49:52.814Z,14.83
2018-02-06T23:52:21.514Z,16.40
2018-02-06T23:54:50.338Z,15.47
2018-02-06T23:57:19.326Z,15.53
2018-02-06T23:59:48.276Z,16.50
